Terminal Aerodrome Forecast
Issued by NWS Amarillo, TX

Current Version | Previous Version | Text Only | Print | Product List | Glossary Off
Versions: 1 2 3 4 5 6 7 8 9 10 11 12 13 14

000
FTUS44 KAMA 240621 AAA
TAFDHT
TAF AMD
KDHT 240621Z 2406/2506 20008KT P6SM SCT120
     FM241300 21010KT P6SM FEW150
     FM241800 17012G20KT P6SM SCT100 BKN150
     FM250000 16010KT P6SM SCT080 BKN100=

USA.gov is the U.S. government's official web portal to all federal, state and local government web resources and services.